sensor_id;sensor_type;location;lat;lon;timestamp;P1;durP1;ratioP1;P2;durP2;ratioP2
77226;SDS011;66234;47.642;19.144;2024-03-06T00:00:22;37.55;;;19.13;;
77226;SDS011;66234;47.642;19.144;2024-03-06T00:03:25;38.08;;;19.48;;
77226;SDS011;66234;47.642;19.144;2024-03-06T00:06:28;39.30;;;19.23;;
77226;SDS011;66234;47.642;19.144;2024-03-06T00:09:30;39.22;;;20.65;;
77226;SDS011;66234;47.642;19.144;2024-03-06T00:12:33;43.83;;;18.93;;
77226;SDS011;66234;47.642;19.144;2024-03-06T00:15:36;40.53;;;18.17;;
77226;SDS011;66234;47.642;19.144;2024-03-06T00:18:39;38.85;;;19.80;;
77226;SDS011;66234;47.642;19.144;2024-03-06T00:21:42;38.45;;;18.85;;
77226;SDS011;66234;47.642;19.144;2024-03-06T00:24:44;40.83;;;19.70;;
77226;SDS011;66234;47.642;19.144;2024-03-06T00:27:50;39.60;;;18.13;;
77226;SDS011;66234;47.642;19.144;2024-03-06T00:30:55;41.97;;;17.88;;
77226;SDS011;66234;47.642;19.144;2024-03-06T00:33:58;39.00;;;19.08;;
77226;SDS011;66234;47.642;19.144;2024-03-06T00:37:01;37.75;;;18.77;;
77226;SDS011;66234;47.642;19.144;2024-03-06T00:40:04;35.80;;;18.03;;
77226;SDS011;66234;47.642;19.144;2024-03-06T00:43:07;37.50;;;19.57;;
77226;SDS011;66234;47.642;19.144;2024-03-06T00:46:09;40.53;;;19.83;;
77226;SDS011;66234;47.642;19.144;2024-03-06T00:49:12;43.83;;;19.95;;
77226;SDS011;66234;47.642;19.144;2024-03-06T00:52:15;42.67;;;19.80;;
77226;SDS011;66234;47.642;19.144;2024-03-06T00:55:17;41.70;;;18.50;;
77226;SDS011;66234;47.642;19.144;2024-03-06T00:58:20;39.40;;;19.20;;
77226;SDS011;66234;47.642;19.144;2024-03-06T01:01:22;38.45;;;18.45;;
77226;SDS011;66234;47.642;19.144;2024-03-06T01:04:25;39.65;;;18.67;;
77226;SDS011;66234;47.642;19.144;2024-03-06T01:07:27;43.73;;;19.40;;
77226;SDS011;66234;47.642;19.144;2024-03-06T01:10:30;38.27;;;19.70;;
77226;SDS011;66234;47.642;19.144;2024-03-06T01:13:33;38.92;;;19.73;;
77226;SDS011;66234;47.642;19.144;2024-03-06T01:16:35;43.47;;;19.83;;
77226;SDS011;66234;47.642;19.144;2024-03-06T01:19:38;45.13;;;20.70;;
77226;SDS011;66234;47.642;19.144;2024-03-06T01:22:40;42.03;;;19.17;;
77226;SDS011;66234;47.642;19.144;2024-03-06T01:25:43;40.53;;;20.52;;
77226;SDS011;66234;47.642;19.144;2024-03-06T01:28:46;37.42;;;18.33;;
77226;SDS011;66234;47.642;19.144;2024-03-06T01:31:48;38.03;;;20.10;;
77226;SDS011;66234;47.642;19.144;2024-03-06T01:34:53;42.03;;;19.83;;
77226;SDS011;66234;47.642;19.144;2024-03-06T01:37:56;40.87;;;18.90;;
77226;SDS011;66234;47.642;19.144;2024-03-06T01:40:58;41.90;;;20.50;;
77226;SDS011;66234;47.642;19.144;2024-03-06T01:44:03;44.17;;;21.02;;
77226;SDS011;66234;47.642;19.144;2024-03-06T01:47:06;47.22;;;20.73;;
77226;SDS011;66234;47.642;19.144;2024-03-06T01:50:09;37.50;;;18.67;;
77226;SDS011;66234;47.642;19.144;2024-03-06T01:53:13;38.42;;;19.25;;
77226;SDS011;66234;47.642;19.144;2024-03-06T01:56:17;40.67;;;19.75;;
77226;SDS011;66234;47.642;19.144;2024-03-06T01:59:21;40.30;;;19.75;;
77226;SDS011;66234;47.642;19.144;2024-03-06T02:02:38;42.00;;;19.47;;
77226;SDS011;66234;47.642;19.144;2024-03-06T02:05:40;36.90;;;20.02;;
77226;SDS011;66234;47.642;19.144;2024-03-06T02:08:43;43.97;;;20.33;;
77226;SDS011;66234;47.642;19.144;2024-03-06T02:11:46;35.85;;;18.38;;
77226;SDS011;66234;47.642;19.144;2024-03-06T02:14:48;37.77;;;18.90;;
77226;SDS011;66234;47.642;19.144;2024-03-06T02:17:52;39.58;;;19.20;;
77226;SDS011;66234;47.642;19.144;2024-03-06T02:20:55;44.80;;;20.15;;
77226;SDS011;66234;47.642;19.144;2024-03-06T02:23:58;43.53;;;20.92;;
77226;SDS011;66234;47.642;19.144;2024-03-06T02:27:01;41.00;;;18.50;;
77226;SDS011;66234;47.642;19.144;2024-03-06T02:30:03;40.92;;;19.38;;
77226;SDS011;66234;47.642;19.144;2024-03-06T02:33:07;40.17;;;19.08;;
77226;SDS011;66234;47.642;19.144;2024-03-06T02:36:10;44.72;;;19.05;;
77226;SDS011;66234;47.642;19.144;2024-03-06T02:39:13;43.47;;;21.00;;
77226;SDS011;66234;47.642;19.144;2024-03-06T02:42:17;39.17;;;19.80;;
77226;SDS011;66234;47.642;19.144;2024-03-06T02:45:21;44.25;;;21.27;;
77226;SDS011;66234;47.642;19.144;2024-03-06T02:48:24;48.00;;;20.98;;
77226;SDS011;66234;47.642;19.144;2024-03-06T02:51:27;46.45;;;20.58;;
77226;SDS011;66234;47.642;19.144;2024-03-06T02:54:29;44.30;;;20.27;;
77226;SDS011;66234;47.642;19.144;2024-03-06T02:57:33;42.70;;;19.42;;
77226;SDS011;66234;47.642;19.144;2024-03-06T03:00:36;40.67;;;18.45;;
77226;SDS011;66234;47.642;19.144;2024-03-06T03:03:41;43.20;;;18.55;;
77226;SDS011;66234;47.642;19.144;2024-03-06T03:06:46;37.03;;;17.90;;
77226;SDS011;66234;47.642;19.144;2024-03-06T03:09:48;40.57;;;19.23;;
77226;SDS011;66234;47.642;19.144;2024-03-06T03:12:51;42.45;;;18.00;;
77226;SDS011;66234;47.642;19.144;2024-03-06T03:15:55;39.92;;;18.65;;
77226;SDS011;66234;47.642;19.144;2024-03-06T03:18:58;39.08;;;18.92;;
77226;SDS011;66234;47.642;19.144;2024-03-06T03:22:00;38.03;;;18.17;;
77226;SDS011;66234;47.642;19.144;2024-03-06T03:25:07;39.30;;;18.02;;
77226;SDS011;66234;47.642;19.144;2024-03-06T03:28:10;39.95;;;19.35;;
77226;SDS011;66234;47.642;19.144;2024-03-06T03:31:13;42.63;;;20.33;;
77226;SDS011;66234;47.642;19.144;2024-03-06T03:34:18;43.60;;;19.60;;
77226;SDS011;66234;47.642;19.144;2024-03-06T03:37:23;36.17;;;19.02;;
77226;SDS011;66234;47.642;19.144;2024-03-06T03:40:25;41.15;;;20.33;;
77226;SDS011;66234;47.642;19.144;2024-03-06T03:43:28;42.80;;;18.58;;
77226;SDS011;66234;47.642;19.144;2024-03-06T03:46:31;38.17;;;18.23;;
77226;SDS011;66234;47.642;19.144;2024-03-06T03:49:33;35.45;;;18.10;;
77226;SDS011;66234;47.642;19.144;2024-03-06T03:52:37;37.75;;;18.65;;
77226;SDS011;66234;47.642;19.144;2024-03-06T03:55:44;41.80;;;19.20;;
77226;SDS011;66234;47.642;19.144;2024-03-06T03:58:47;37.73;;;17.13;;
77226;SDS011;66234;47.642;19.144;2024-03-06T04:01:50;38.83;;;18.05;;
77226;SDS011;66234;47.642;19.144;2024-03-06T04:04:52;38.08;;;19.40;;
77226;SDS011;66234;47.642;19.144;2024-03-06T04:07:55;35.05;;;18.65;;
77226;SDS011;66234;47.642;19.144;2024-03-06T04:10:57;39.97;;;20.20;;
77226;SDS011;66234;47.642;19.144;2024-03-06T04:14:00;38.35;;;18.08;;
77226;SDS011;66234;47.642;19.144;2024-03-06T04:17:03;40.15;;;18.35;;
77226;SDS011;66234;47.642;19.144;2024-03-06T04:20:06;39.27;;;19.27;;
77226;SDS011;66234;47.642;19.144;2024-03-06T04:23:10;39.90;;;18.47;;
77226;SDS011;66234;47.642;19.144;2024-03-06T04:26:13;41.88;;;18.85;;
77226;SDS011;66234;47.642;19.144;2024-03-06T04:29:15;44.92;;;19.17;;
77226;SDS011;66234;47.642;19.144;2024-03-06T04:32:19;44.83;;;18.67;;
77226;SDS011;66234;47.642;19.144;2024-03-06T04:35:21;42.83;;;19.30;;
77226;SDS011;66234;47.642;19.144;2024-03-06T04:38:24;43.00;;;19.77;;
77226;SDS011;66234;47.642;19.144;2024-03-06T04:41:27;43.22;;;20.00;;
77226;SDS011;66234;47.642;19.144;2024-03-06T04:44:32;44.37;;;19.93;;
77226;SDS011;66234;47.642;19.144;2024-03-06T04:47:36;48.03;;;21.48;;
77226;SDS011;66234;47.642;19.144;2024-03-06T04:50:38;46.58;;;21.50;;
77226;SDS011;66234;47.642;19.144;2024-03-06T04:53:41;42.92;;;20.17;;
77226;SDS011;66234;47.642;19.144;2024-03-06T04:56:44;40.47;;;19.07;;
77226;SDS011;66234;47.642;19.144;2024-03-06T04:59:48;40.00;;;18.83;;
77226;SDS011;66234;47.642;19.144;2024-03-06T05:02:50;38.97;;;17.90;;
77226;SDS011;66234;47.642;19.144;2024-03-06T05:06:10;50.78;;;19.02;;
77226;SDS011;66234;47.642;19.144;2024-03-06T05:09:31;41.53;;;18.93;;
77226;SDS011;66234;47.642;19.144;2024-03-06T05:12:52;38.57;;;17.97;;
77226;SDS011;66234;47.642;19.144;2024-03-06T05:16:13;40.03;;;18.45;;
77226;SDS011;66234;47.642;19.144;2024-03-06T05:19:33;39.28;;;18.48;;
77226;SDS011;66234;47.642;19.144;2024-03-06T05:22:54;35.87;;;17.97;;
77226;SDS011;66234;47.642;19.144;2024-03-06T05:26:14;43.03;;;18.60;;
77226;SDS011;66234;47.642;19.144;2024-03-06T05:29:35;39.38;;;18.73;;
77226;SDS011;66234;47.642;19.144;2024-03-06T05:32:56;48.80;;;18.42;;
77226;SDS011;66234;47.642;19.144;2024-03-06T05:36:15;45.50;;;19.30;;
77226;SDS011;66234;47.642;19.144;2024-03-06T05:39:36;45.03;;;20.53;;
77226;SDS011;66234;47.642;19.144;2024-03-06T05:43:02;42.60;;;19.73;;
77226;SDS011;66234;47.642;19.144;2024-03-06T05:46:23;39.80;;;18.73;;
77226;SDS011;66234;47.642;19.144;2024-03-06T05:49:43;42.73;;;18.97;;
77226;SDS011;66234;47.642;19.144;2024-03-06T05:53:03;40.90;;;19.77;;
77226;SDS011;66234;47.642;19.144;2024-03-06T05:56:23;42.35;;;19.27;;
77226;SDS011;66234;47.642;19.144;2024-03-06T05:59:43;41.45;;;18.83;;
77226;SDS011;66234;47.642;19.144;2024-03-06T06:02:46;45.40;;;20.95;;
77226;SDS011;66234;47.642;19.144;2024-03-06T06:05:49;42.17;;;18.57;;
77226;SDS011;66234;47.642;19.144;2024-03-06T06:08:51;41.83;;;19.42;;
77226;SDS011;66234;47.642;19.144;2024-03-06T06:11:54;46.00;;;20.73;;
77226;SDS011;66234;47.642;19.144;2024-03-06T06:14:57;40.15;;;19.13;;
77226;SDS011;66234;47.642;19.144;2024-03-06T06:17:59;40.43;;;20.10;;
77226;SDS011;66234;47.642;19.144;2024-03-06T06:21:02;47.37;;;20.27;;
77226;SDS011;66234;47.642;19.144;2024-03-06T06:24:09;40.42;;;19.23;;
77226;SDS011;66234;47.642;19.144;2024-03-06T06:27:12;39.80;;;19.92;;
77226;SDS011;66234;47.642;19.144;2024-03-06T06:30:15;41.25;;;19.83;;
77226;SDS011;66234;47.642;19.144;2024-03-06T06:33:19;46.10;;;19.77;;
77226;SDS011;66234;47.642;19.144;2024-03-06T06:36:23;41.10;;;19.33;;
77226;SDS011;66234;47.642;19.144;2024-03-06T06:39:26;43.88;;;19.35;;
77226;SDS011;66234;47.642;19.144;2024-03-06T06:42:28;40.83;;;18.35;;
77226;SDS011;66234;47.642;19.144;2024-03-06T06:45:31;43.90;;;19.27;;
77226;SDS011;66234;47.642;19.144;2024-03-06T06:48:36;40.03;;;19.17;;
77226;SDS011;66234;47.642;19.144;2024-03-06T06:51:42;38.47;;;17.20;;
77226;SDS011;66234;47.642;19.144;2024-03-06T06:54:44;44.33;;;18.73;;
77226;SDS011;66234;47.642;19.144;2024-03-06T06:57:47;40.50;;;19.05;;
77226;SDS011;66234;47.642;19.144;2024-03-06T07:00:50;41.13;;;19.45;;
77226;SDS011;66234;47.642;19.144;2024-03-06T07:03:53;41.57;;;20.13;;
77226;SDS011;66234;47.642;19.144;2024-03-06T07:06:56;55.20;;;24.67;;
77226;SDS011;66234;47.642;19.144;2024-03-06T07:16:07;32.25;;;15.60;;
77226;SDS011;66234;47.642;19.144;2024-03-06T07:19:10;25.75;;;13.88;;
77226;SDS011;66234;47.642;19.144;2024-03-06T07:22:14;31.90;;;16.87;;
77226;SDS011;66234;47.642;19.144;2024-03-06T07:25:18;28.77;;;14.00;;
77226;SDS011;66234;47.642;19.144;2024-03-06T07:28:21;28.35;;;15.45;;
77226;SDS011;66234;47.642;19.144;2024-03-06T07:31:24;27.95;;;15.43;;
77226;SDS011;66234;47.642;19.144;2024-03-06T07:34:27;28.50;;;14.70;;
77226;SDS011;66234;47.642;19.144;2024-03-06T07:37:30;24.23;;;13.27;;
77226;SDS011;66234;47.642;19.144;2024-03-06T07:40:33;25.47;;;12.87;;
77226;SDS011;66234;47.642;19.144;2024-03-06T07:43:37;24.10;;;12.88;;
77226;SDS011;66234;47.642;19.144;2024-03-06T07:46:41;25.30;;;13.13;;
77226;SDS011;66234;47.642;19.144;2024-03-06T07:49:46;21.83;;;12.15;;
77226;SDS011;66234;47.642;19.144;2024-03-06T07:52:50;22.93;;;12.03;;
77226;SDS011;66234;47.642;19.144;2024-03-06T07:55:53;27.60;;;12.80;;
77226;SDS011;66234;47.642;19.144;2024-03-06T07:58:55;19.77;;;10.60;;
77226;SDS011;66234;47.642;19.144;2024-03-06T08:01:59;25.33;;;13.35;;
77226;SDS011;66234;47.642;19.144;2024-03-06T08:05:01;22.58;;;12.75;;
77226;SDS011;66234;47.642;19.144;2024-03-06T08:08:04;23.70;;;11.93;;
77226;SDS011;66234;47.642;19.144;2024-03-06T08:11:08;23.77;;;11.63;;
77226;SDS011;66234;47.642;19.144;2024-03-06T08:14:13;20.70;;;11.35;;
77226;SDS011;66234;47.642;19.144;2024-03-06T08:17:19;18.42;;;11.68;;
77226;SDS011;66234;47.642;19.144;2024-03-06T08:20:25;19.77;;;10.35;;
77226;SDS011;66234;47.642;19.144;2024-03-06T08:23:27;23.30;;;12.43;;
77226;SDS011;66234;47.642;19.144;2024-03-06T08:26:30;21.00;;;11.17;;
77226;SDS011;66234;47.642;19.144;2024-03-06T08:29:34;19.95;;;10.57;;
77226;SDS011;66234;47.642;19.144;2024-03-06T08:32:37;19.13;;;10.45;;
77226;SDS011;66234;47.642;19.144;2024-03-06T08:35:41;21.60;;;11.38;;
77226;SDS011;66234;47.642;19.144;2024-03-06T08:38:46;22.07;;;11.40;;
77226;SDS011;66234;47.642;19.144;2024-03-06T08:41:49;18.03;;;10.07;;
77226;SDS011;66234;47.642;19.144;2024-03-06T08:44:52;18.48;;;10.07;;
77226;SDS011;66234;47.642;19.144;2024-03-06T08:47:55;21.27;;;11.43;;
77226;SDS011;66234;47.642;19.144;2024-03-06T08:51:01;20.88;;;10.30;;
77226;SDS011;66234;47.642;19.144;2024-03-06T08:54:05;15.50;;;9.53;;
77226;SDS011;66234;47.642;19.144;2024-03-06T08:57:13;17.60;;;9.33;;
77226;SDS011;66234;47.642;19.144;2024-03-06T09:00:16;15.57;;;9.77;;
77226;SDS011;66234;47.642;19.144;2024-03-06T09:03:20;18.48;;;10.15;;
77226;SDS011;66234;47.642;19.144;2024-03-06T09:06:23;17.73;;;8.85;;
77226;SDS011;66234;47.642;19.144;2024-03-06T09:09:25;13.47;;;8.73;;
77226;SDS011;66234;47.642;19.144;2024-03-06T09:12:28;16.73;;;9.27;;
77226;SDS011;66234;47.642;19.144;2024-03-06T09:15:31;12.95;;;7.30;;
77226;SDS011;66234;47.642;19.144;2024-03-06T09:18:36;13.50;;;8.18;;
77226;SDS011;66234;47.642;19.144;2024-03-06T09:21:39;14.73;;;7.75;;
77226;SDS011;66234;47.642;19.144;2024-03-06T09:24:42;12.80;;;7.90;;
77226;SDS011;66234;47.642;19.144;2024-03-06T09:27:45;15.43;;;6.73;;
77226;SDS011;66234;47.642;19.144;2024-03-06T09:30:48;12.60;;;6.97;;
77226;SDS011;66234;47.642;19.144;2024-03-06T09:33:51;14.50;;;7.47;;
77226;SDS011;66234;47.642;19.144;2024-03-06T09:36:54;15.82;;;7.32;;
77226;SDS011;66234;47.642;19.144;2024-03-06T09:39:57;15.50;;;7.27;;
77226;SDS011;66234;47.642;19.144;2024-03-06T09:43:00;14.23;;;6.57;;
77226;SDS011;66234;47.642;19.144;2024-03-06T09:46:04;10.82;;;6.15;;
77226;SDS011;66234;47.642;19.144;2024-03-06T09:49:09;10.75;;;6.43;;
77226;SDS011;66234;47.642;19.144;2024-03-06T09:52:14;11.23;;;6.00;;
77226;SDS011;66234;47.642;19.144;2024-03-06T09:55:16;10.73;;;5.77;;
77226;SDS011;66234;47.642;19.144;2024-03-06T09:58:19;11.67;;;5.77;;
77226;SDS011;66234;47.642;19.144;2024-03-06T10:01:22;8.95;;;5.70;;
77226;SDS011;66234;47.642;19.144;2024-03-06T10:04:27;11.02;;;5.47;;
77226;SDS011;66234;47.642;19.144;2024-03-06T10:07:30;11.13;;;6.03;;
77226;SDS011;66234;47.642;19.144;2024-03-06T10:10:33;9.67;;;5.43;;
77226;SDS011;66234;47.642;19.144;2024-03-06T10:13:36;10.33;;;5.60;;
77226;SDS011;66234;47.642;19.144;2024-03-06T10:16:54;9.85;;;5.50;;
77226;SDS011;66234;47.642;19.144;2024-03-06T10:20:01;9.23;;;5.20;;
77226;SDS011;66234;47.642;19.144;2024-03-06T10:23:07;8.48;;;5.20;;
77226;SDS011;66234;47.642;19.144;2024-03-06T10:26:14;10.47;;;6.00;;
77226;SDS011;66234;47.642;19.144;2024-03-06T10:29:17;10.40;;;5.67;;
77226;SDS011;66234;47.642;19.144;2024-03-06T10:32:21;11.88;;;5.93;;
77226;SDS011;66234;47.642;19.144;2024-03-06T10:35:23;9.68;;;5.90;;
77226;SDS011;66234;47.642;19.144;2024-03-06T10:38:27;10.63;;;5.32;;
77226;SDS011;66234;47.642;19.144;2024-03-06T10:41:38;10.67;;;5.97;;
77226;SDS011;66234;47.642;19.144;2024-03-06T10:44:46;9.90;;;4.60;;
77226;SDS011;66234;47.642;19.144;2024-03-06T10:47:54;9.40;;;6.05;;
77226;SDS011;66234;47.642;19.144;2024-03-06T10:50:58;11.00;;;6.30;;
77226;SDS011;66234;47.642;19.144;2024-03-06T10:54:02;11.82;;;6.70;;
77226;SDS011;66234;47.642;19.144;2024-03-06T10:57:08;11.53;;;6.60;;
77226;SDS011;66234;47.642;19.144;2024-03-06T11:00:13;10.77;;;6.60;;
77226;SDS011;66234;47.642;19.144;2024-03-06T11:03:21;10.63;;;6.63;;
77226;SDS011;66234;47.642;19.144;2024-03-06T11:06:26;10.88;;;6.03;;
77226;SDS011;66234;47.642;19.144;2024-03-06T11:09:35;10.90;;;6.20;;
77226;SDS011;66234;47.642;19.144;2024-03-06T11:12:40;13.57;;;7.10;;
77226;SDS011;66234;47.642;19.144;2024-03-06T11:15:43;9.97;;;6.37;;
77226;SDS011;66234;47.642;19.144;2024-03-06T11:18:45;14.30;;;7.55;;
77226;SDS011;66234;47.642;19.144;2024-03-06T11:21:49;11.65;;;7.57;;
77226;SDS011;66234;47.642;19.144;2024-03-06T11:24:52;9.38;;;6.15;;
77226;SDS011;66234;47.642;19.144;2024-03-06T11:28:04;13.17;;;7.00;;
77226;SDS011;66234;47.642;19.144;2024-03-06T11:31:08;12.93;;;7.20;;
77226;SDS011;66234;47.642;19.144;2024-03-06T11:34:15;12.18;;;7.72;;
77226;SDS011;66234;47.642;19.144;2024-03-06T11:37:20;14.40;;;7.40;;
77226;SDS011;66234;47.642;19.144;2024-03-06T11:40:24;12.95;;;6.10;;
77226;SDS011;66234;47.642;19.144;2024-03-06T11:43:27;9.30;;;6.23;;
77226;SDS011;66234;47.642;19.144;2024-03-06T11:46:46;10.60;;;6.33;;
77226;SDS011;66234;47.642;19.144;2024-03-06T11:49:51;12.98;;;6.88;;
77226;SDS011;66234;47.642;19.144;2024-03-06T11:52:58;11.25;;;6.53;;
77226;SDS011;66234;47.642;19.144;2024-03-06T11:56:01;12.30;;;6.68;;
77226;SDS011;66234;47.642;19.144;2024-03-06T11:59:04;9.97;;;6.67;;
77226;SDS011;66234;47.642;19.144;2024-03-06T12:02:10;10.50;;;6.40;;
77226;SDS011;66234;47.642;19.144;2024-03-06T12:05:14;9.52;;;6.50;;
77226;SDS011;66234;47.642;19.144;2024-03-06T12:08:17;8.50;;;5.75;;
77226;SDS011;66234;47.642;19.144;2024-03-06T12:11:19;12.35;;;5.90;;
77226;SDS011;66234;47.642;19.144;2024-03-06T12:14:24;9.50;;;5.70;;
77226;SDS011;66234;47.642;19.144;2024-03-06T12:17:27;10.53;;;6.17;;
77226;SDS011;66234;47.642;19.144;2024-03-06T12:20:30;12.35;;;6.53;;
77226;SDS011;66234;47.642;19.144;2024-03-06T12:23:33;10.20;;;6.20;;
77226;SDS011;66234;47.642;19.144;2024-03-06T12:26:36;11.43;;;6.65;;
77226;SDS011;66234;47.642;19.144;2024-03-06T12:29:39;9.67;;;6.03;;
77226;SDS011;66234;47.642;19.144;2024-03-06T12:32:45;10.73;;;6.40;;
77226;SDS011;66234;47.642;19.144;2024-03-06T12:36:00;8.73;;;5.90;;
77226;SDS011;66234;47.642;19.144;2024-03-06T12:39:14;8.93;;;5.78;;
77226;SDS011;66234;47.642;19.144;2024-03-06T12:42:20;12.18;;;6.40;;
77226;SDS011;66234;47.642;19.144;2024-03-06T12:45:23;8.83;;;5.07;;
77226;SDS011;66234;47.642;19.144;2024-03-06T12:48:26;9.00;;;5.07;;
77226;SDS011;66234;47.642;19.144;2024-03-06T12:51:30;9.82;;;4.90;;
77226;SDS011;66234;47.642;19.144;2024-03-06T12:54:35;10.57;;;5.38;;
77226;SDS011;66234;47.642;19.144;2024-03-06T12:57:38;7.93;;;5.10;;
77226;SDS011;66234;47.642;19.144;2024-03-06T13:00:40;11.33;;;6.07;;
77226;SDS011;66234;47.642;19.144;2024-03-06T13:03:43;10.40;;;5.60;;
77226;SDS011;66234;47.642;19.144;2024-03-06T13:06:47;7.97;;;5.50;;
77226;SDS011;66234;47.642;19.144;2024-03-06T13:09:50;9.63;;;4.93;;
77226;SDS011;66234;47.642;19.144;2024-03-06T13:12:53;11.05;;;5.60;;
77226;SDS011;66234;47.642;19.144;2024-03-06T13:15:56;7.73;;;5.87;;
77226;SDS011;66234;47.642;19.144;2024-03-06T13:18:58;10.80;;;5.60;;
77226;SDS011;66234;47.642;19.144;2024-03-06T13:22:03;11.20;;;5.30;;
77226;SDS011;66234;47.642;19.144;2024-03-06T13:25:10;9.65;;;5.20;;
77226;SDS011;66234;47.642;19.144;2024-03-06T13:28:12;10.95;;;5.18;;
77226;SDS011;66234;47.642;19.144;2024-03-06T13:31:15;7.47;;;4.83;;
77226;SDS011;66234;47.642;19.144;2024-03-06T13:34:18;7.70;;;4.70;;
77226;SDS011;66234;47.642;19.144;2024-03-06T13:37:21;10.20;;;5.20;;
77226;SDS011;66234;47.642;19.144;2024-03-06T13:40:26;10.10;;;5.65;;
77226;SDS011;66234;47.642;19.144;2024-03-06T13:43:29;9.15;;;4.78;;
77226;SDS011;66234;47.642;19.144;2024-03-06T13:46:32;8.70;;;5.50;;
77226;SDS011;66234;47.642;19.144;2024-03-06T13:49:39;7.80;;;5.13;;
77226;SDS011;66234;47.642;19.144;2024-03-06T13:52:42;9.95;;;6.20;;
77226;SDS011;66234;47.642;19.144;2024-03-06T13:55:45;8.23;;;5.15;;
77226;SDS011;66234;47.642;19.144;2024-03-06T13:58:48;10.75;;;4.95;;
77226;SDS011;66234;47.642;19.144;2024-03-06T14:01:51;7.90;;;4.70;;
77226;SDS011;66234;47.642;19.144;2024-03-06T14:04:54;12.60;;;6.57;;
77226;SDS011;66234;47.642;19.144;2024-03-06T14:07:57;12.70;;;7.45;;
77226;SDS011;66234;47.642;19.144;2024-03-06T14:11:00;15.65;;;7.55;;
77226;SDS011;66234;47.642;19.144;2024-03-06T14:14:03;15.18;;;7.65;;
77226;SDS011;66234;47.642;19.144;2024-03-06T14:17:05;14.53;;;7.77;;
77226;SDS011;66234;47.642;19.144;2024-03-06T14:20:08;11.90;;;7.47;;
77226;SDS011;66234;47.642;19.144;2024-03-06T14:23:14;14.52;;;7.47;;
77226;SDS011;66234;47.642;19.144;2024-03-06T14:26:17;18.73;;;9.80;;
77226;SDS011;66234;47.642;19.144;2024-03-06T14:29:20;18.50;;;8.52;;
77226;SDS011;66234;47.642;19.144;2024-03-06T14:32:25;14.83;;;8.40;;
77226;SDS011;66234;47.642;19.144;2024-03-06T14:35:28;14.00;;;7.93;;
77226;SDS011;66234;47.642;19.144;2024-03-06T14:38:31;15.88;;;9.38;;
77226;SDS011;66234;47.642;19.144;2024-03-06T14:41:34;13.63;;;9.50;;
77226;SDS011;66234;47.642;19.144;2024-03-06T14:44:37;14.30;;;9.00;;
77226;SDS011;66234;47.642;19.144;2024-03-06T14:47:40;19.43;;;10.07;;
77226;SDS011;66234;47.642;19.144;2024-03-06T14:50:43;16.50;;;9.80;;
77226;SDS011;66234;47.642;19.144;2024-03-06T14:53:46;15.68;;;9.57;;
77226;SDS011;66234;47.642;19.144;2024-03-06T14:56:49;13.98;;;9.43;;
77226;SDS011;66234;47.642;19.144;2024-03-06T14:59:52;16.58;;;10.35;;
77226;SDS011;66234;47.642;19.144;2024-03-06T15:03:01;14.03;;;9.30;;
77226;SDS011;66234;47.642;19.144;2024-03-06T15:06:04;16.33;;;10.37;;
77226;SDS011;66234;47.642;19.144;2024-03-06T15:09:09;18.25;;;11.20;;
77226;SDS011;66234;47.642;19.144;2024-03-06T15:12:14;15.95;;;9.52;;
77226;SDS011;66234;47.642;19.144;2024-03-06T15:15:18;18.35;;;9.35;;
77226;SDS011;66234;47.642;19.144;2024-03-06T15:18:21;15.13;;;9.40;;
77226;SDS011;66234;47.642;19.144;2024-03-06T15:21:24;15.83;;;9.60;;
77226;SDS011;66234;47.642;19.144;2024-03-06T15:24:26;11.65;;;9.10;;
77226;SDS011;66234;47.642;19.144;2024-03-06T15:27:29;18.27;;;9.93;;
77226;SDS011;66234;47.642;19.144;2024-03-06T15:30:32;21.02;;;11.00;;
77226;SDS011;66234;47.642;19.144;2024-03-06T15:33:36;15.03;;;9.67;;
77226;SDS011;66234;47.642;19.144;2024-03-06T15:36:40;14.47;;;9.27;;
77226;SDS011;66234;47.642;19.144;2024-03-06T15:39:43;19.23;;;8.93;;
77226;SDS011;66234;47.642;19.144;2024-03-06T15:42:46;14.02;;;8.88;;
77226;SDS011;66234;47.642;19.144;2024-03-06T15:45:49;17.52;;;8.95;;
77226;SDS011;66234;47.642;19.144;2024-03-06T15:48:52;16.20;;;9.40;;
77226;SDS011;66234;47.642;19.144;2024-03-06T15:51:54;17.30;;;9.07;;
77226;SDS011;66234;47.642;19.144;2024-03-06T15:54:57;14.95;;;9.55;;
77226;SDS011;66234;47.642;19.144;2024-03-06T15:58:00;19.60;;;11.15;;
77226;SDS011;66234;47.642;19.144;2024-03-06T16:01:06;19.02;;;11.82;;
77226;SDS011;66234;47.642;19.144;2024-03-06T16:04:09;24.30;;;13.33;;
77226;SDS011;66234;47.642;19.144;2024-03-06T16:07:13;18.37;;;11.23;;
77226;SDS011;66234;47.642;19.144;2024-03-06T16:10:16;18.25;;;10.82;;
77226;SDS011;66234;47.642;19.144;2024-03-06T16:13:19;20.23;;;10.75;;
77226;SDS011;66234;47.642;19.144;2024-03-06T16:16:22;29.33;;;13.55;;
77226;SDS011;66234;47.642;19.144;2024-03-06T16:19:25;47.00;;;22.43;;
77226;SDS011;66234;47.642;19.144;2024-03-06T16:22:39;43.27;;;20.37;;
77226;SDS011;66234;47.642;19.144;2024-03-06T16:25:44;61.35;;;24.92;;
77226;SDS011;66234;47.642;19.144;2024-03-06T16:28:47;143.48;;;49.45;;
77226;SDS011;66234;47.642;19.144;2024-03-06T16:31:49;69.90;;;34.92;;
77226;SDS011;66234;47.642;19.144;2024-03-06T16:34:52;33.87;;;21.23;;
77226;SDS011;66234;47.642;19.144;2024-03-06T16:37:55;28.97;;;17.30;;
77226;SDS011;66234;47.642;19.144;2024-03-06T16:40:58;26.33;;;16.50;;
77226;SDS011;66234;47.642;19.144;2024-03-06T16:44:02;50.92;;;28.48;;
77226;SDS011;66234;47.642;19.144;2024-03-06T16:47:06;62.10;;;30.42;;
77226;SDS011;66234;47.642;19.144;2024-03-06T16:50:09;47.43;;;25.80;;
77226;SDS011;66234;47.642;19.144;2024-03-06T16:53:12;45.27;;;22.60;;
77226;SDS011;66234;47.642;19.144;2024-03-06T16:56:16;53.08;;;24.95;;
77226;SDS011;66234;47.642;19.144;2024-03-06T16:59:20;45.33;;;24.13;;
77226;SDS011;66234;47.642;19.144;2024-03-06T17:02:23;71.20;;;32.78;;
77226;SDS011;66234;47.642;19.144;2024-03-06T17:05:26;62.20;;;30.37;;
77226;SDS011;66234;47.642;19.144;2024-03-06T17:08:31;60.47;;;29.33;;
77226;SDS011;66234;47.642;19.144;2024-03-06T17:11:33;75.55;;;35.92;;
77226;SDS011;66234;47.642;19.144;2024-03-06T17:14:36;91.07;;;43.28;;
77226;SDS011;66234;47.642;19.144;2024-03-06T17:17:39;84.82;;;41.63;;
77226;SDS011;66234;47.642;19.144;2024-03-06T17:20:42;81.53;;;39.00;;
77226;SDS011;66234;47.642;19.144;2024-03-06T17:23:45;65.17;;;34.60;;
77226;SDS011;66234;47.642;19.144;2024-03-06T17:26:51;58.58;;;33.28;;
77226;SDS011;66234;47.642;19.144;2024-03-06T17:29:55;60.60;;;30.75;;
77226;SDS011;66234;47.642;19.144;2024-03-06T17:32:59;38.60;;;19.75;;
77226;SDS011;66234;47.642;19.144;2024-03-06T17:36:02;30.03;;;17.77;;
77226;SDS011;66234;47.642;19.144;2024-03-06T17:39:05;30.70;;;17.97;;
77226;SDS011;66234;47.642;19.144;2024-03-06T17:42:11;42.22;;;22.60;;
77226;SDS011;66234;47.642;19.144;2024-03-06T17:45:14;43.83;;;22.27;;
77226;SDS011;66234;47.642;19.144;2024-03-06T17:48:17;39.63;;;20.38;;
77226;SDS011;66234;47.642;19.144;2024-03-06T17:51:27;32.27;;;17.90;;
77226;SDS011;66234;47.642;19.144;2024-03-06T17:54:30;34.90;;;19.73;;
77226;SDS011;66234;47.642;19.144;2024-03-06T17:57:36;33.15;;;19.80;;